Estación Meteorológica Peña el Pijo (Robertgarden) [ 02/03/23 04:49:00 CET ]

Fecha Hora Presion(HPa) Temp (°C) Humedad % Rocio (°C) Viento ( m/s) Direccion Lluvia 1Hora(mm) Lluvia 24H(mm) LLuvia Total(mm)
2012-Mar-13 01:01:17 1016.400 2.9 57 -4.8         153.32
2012-Mar-13 02:10:07 1016.300 2.2 59 -5.0         153.32
2012-Mar-13 03:03:15 1016.300 1.3 65 -4.6         153.32
2012-Mar-13 04:01:16 1016.000 1.0 66 -4.7         153.32
2012-Mar-13 05:01:12 1015.800 0.6 68 -4.7         153.32
2012-Mar-13 06:01:14 1016.100 0.1 73 -4.2         153.32
2012-Mar-13 07:01:14 1016.200 0.1 74 -4.0         153.32
2012-Mar-13 08:01:14 1016.400 0.3 74 -3.8         153.32
2012-Mar-13 09:01:17 1016.600 7.4 61 0.4         153.32
2012-Mar-13 10:01:14 1016.500 13.8 41 0.7         153.32
2012-Mar-13 11:01:14 1016.400 19.4 27 -0.2         153.32
2012-Mar-13 12:01:13 1016.100 20.8 22 -1.9         153.32
2012-Mar-13 13:01:11 1016.000 21.5 21 -1.8         153.32
2012-Mar-13 14:01:12 1015.400 22.6 19 -2.4         153.32
2012-Mar-13 15:01:15 1015.000 23.6 18 -2.5         153.32
2012-Mar-13 16:01:13 1014.800 23.4 18 -2.6         153.32
2012-Mar-13 17:01:21 1014.400 23.0 18 -2.9         153.32
2012-Mar-13 18:01:21 1014.700 20.8 19 -3.9         153.32
2012-Mar-13 19:01:18 1015.100 17.2 23 -4.3         153.32
2012-Mar-13 20:01:11 1015.700 13.3 30 -3.9         153.32
2012-Mar-13 21:01:14 1016.300 9.3 37 -4.8         153.32
2012-Mar-13 22:01:13 1016.600 7.4 43 -4.4         153.32
2012-Mar-13 23:01:13 1017.000 5.8 47 -4.7         153.32

Temperatura Máxima:23°    Temperatura Mínima:
Presión Máxima:1017.000 Hpa    Presión Mínima:1014.400 Hpa


Volver